Time;durP1;ratioP1;P1;durP2;ratioP2;P2;SDS_P1;SDS_P2;PMS_P1;PMS_P2;Temp;Humidity;BMP_temperature;BMP_pressure;BME280_temperature;BME280_humidity;BME280_pressure;Samples;Min_cycle;Max_cycle;Signal;HPM_P1;HPM_P2
2022/08/22 00:01:10;;;;;;;0.00;0.00;;;17.90;99.90;;;;;;4965917;28;20105;-82
2022/08/22 00:03:45;;;;;;;0.00;0.00;;;17.90;99.90;;;;;;4970642;28;20050;-82
2022/08/22 00:06:19;;;;;;;0.00;0.00;;;17.90;99.90;;;;;;4971569;28;20046;-81
2022/08/22 00:09:00;;;;;;;0.00;0.00;;;18.00;99.90;;;;;;4968291;28;20051;-82
2022/08/22 00:11:39;;;;;;;0.00;0.00;;;17.90;99.90;;;;;;4970001;28;20049;-81
2022/08/22 00:14:13;;;;;;;0.00;0.00;;;17.90;99.90;;;;;;4969284;28;20051;-83
2022/08/22 00:16:47;;;;;;;0.00;0.00;;;17.90;99.90;;;;;;4968647;28;20038;-82
2022/08/22 00:19:23;;;;;;;0.00;0.00;;;17.90;99.90;;;;;;4987715;28;20051;-83
2022/08/22 00:21:56;;;;;;;0.00;0.00;;;17.90;99.90;;;;;;4970382;28;20047;-82
2022/08/22 00:24:32;;;;;;;0.00;0.00;;;17.90;99.90;;;;;;4976607;28;20046;-82
2022/08/22 00:27:03;;;;;;;0.00;0.00;;;17.80;99.90;;;;;;4972795;28;20031;-82
2022/08/22 00:29:36;;;;;;;0.00;0.00;;;17.80;99.90;;;;;;4970382;28;20141;-82
2022/08/22 00:32:10;;;;;;;0.00;0.00;;;17.80;99.90;;;;;;4969134;28;20768;-82
2022/08/22 00:34:42;;;;;;;0.00;0.00;;;17.80;99.90;;;;;;4974427;28;20446;-81
2022/08/22 00:37:15;;;;;;;0.00;0.00;;;17.80;99.90;;;;;;4971369;28;20046;-82
2022/08/22 00:39:51;;;;;;;0.00;0.00;;;17.70;99.90;;;;;;4989453;28;20053;-81
2022/08/22 00:42:56;;;;;;;0.00;0.00;;;17.70;99.90;;;;;;4983622;28;20351;-82
2022/08/22 00:45:57;;;;;;;0.00;0.00;;;17.70;99.90;;;;;;4968040;28;20047;-82
2022/08/22 00:48:44;;;;;;;0.00;0.00;;;17.70;99.90;;;;;;4973004;28;20039;-82
2022/08/22 00:51:53;;;;;;;0.00;0.00;;;17.70;99.90;;;;;;4972009;28;20588;-82
2022/08/22 00:54:31;;;;;;;0.00;0.00;;;17.60;99.90;;;;;;4984268;28;20051;-82
2022/08/22 00:57:17;;;;;;;0.00;0.00;;;17.60;99.90;;;;;;4960900;28;20039;-83
2022/08/22 01:00:06;;;;;;;0.00;0.00;;;17.50;99.90;;;;;;4966424;28;20050;-83
2022/08/22 01:03:00;;;;;;;0.00;0.00;;;17.50;99.90;;;;;;4963356;28;20043;-82
2022/08/22 01:05:43;;;;;;;0.00;0.00;;;17.50;99.90;;;;;;4969048;28;20043;-82
2022/08/22 01:08:29;;;;;;;0.00;0.00;;;17.50;99.90;;;;;;4971405;28;20053;-81
2022/08/22 01:11:10;;;;;;;0.00;0.00;;;17.50;99.90;;;;;;4970509;28;20529;-82
2022/08/22 01:13:53;;;;;;;0.00;0.00;;;17.40;99.90;;;;;;4970507;28;20043;-82
2022/08/22 01:16:33;;;;;;;0.00;0.00;;;17.40;99.90;;;;;;4966808;28;20046;-82
2022/08/22 01:19:22;;;;;;;0.00;0.00;;;17.40;99.90;;;;;;4986024;28;20054;-82
2022/08/22 01:22:11;;;;;;;0.00;0.00;;;17.40;99.90;;;;;;4967064;28;20065;-82
2022/08/22 01:25:24;;;;;;;0.00;0.00;;;17.40;99.90;;;;;;4976732;28;20054;-82
2022/08/22 01:28:16;;;;;;;0.00;0.00;;;17.40;99.90;;;;;;4968555;28;20050;-82
2022/08/22 01:31:11;;;;;;;0.00;0.00;;;17.40;99.90;;;;;;4971273;28;20081;-82
2022/08/22 01:34:07;;;;;;;0.00;0.00;;;17.40;99.90;;;;;;4969659;28;20046;-82
2022/08/22 01:37:23;;;;;;;0.00;0.00;;;17.30;99.90;;;;;;4981181;28;20050;-82
2022/08/22 01:40:24;;;;;;;0.00;0.00;;;17.30;99.90;;;;;;4963146;28;20319;-81
2022/08/22 01:43:09;;;;;;;0.00;0.00;;;17.30;99.90;;;;;;4969283;28;20442;-82
2022/08/22 01:46:22;;;;;;;0.00;0.00;;;17.30;99.90;;;;;;4966434;28;20055;-81
2022/08/22 01:48:54;;;;;;;0.00;0.00;;;17.20;99.90;;;;;;4938947;28;20121;-82
2022/08/22 01:51:25;;;;;;;0.00;0.00;;;17.20;99.90;;;;;;4967086;28;20054;-82
2022/08/22 01:54:00;;;;;;;0.00;0.00;;;17.10;99.90;;;;;;4984620;28;20054;-82
2022/08/22 01:56:32;;;;;;;0.00;0.00;;;16.90;99.90;;;;;;4970626;28;20039;-82
2022/08/22 01:59:02;;;;;;;0.00;0.00;;;16.90;99.90;;;;;;4969564;28;20043;-82
2022/08/22 02:01:51;;;;;;;0.00;0.00;;;16.90;99.90;;;;;;4962892;28;20426;-81
2022/08/22 02:04:28;;;;;;;0.00;0.00;;;16.80;99.90;;;;;;4965259;28;20053;-82
2022/08/22 02:07:02;;;;;;;0.00;0.00;;;16.80;99.90;;;;;;4967367;28;20924;-82
2022/08/22 02:09:47;;;;;;;0.00;0.00;;;16.80;99.90;;;;;;4971683;28;20043;-82
2022/08/22 02:12:28;;;;;;;0.00;0.00;;;16.80;99.90;;;;;;4970820;28;20515;-81
2022/08/22 02:15:05;;;;;;;0.00;0.00;;;16.70;99.90;;;;;;4965199;28;20114;-82
2022/08/22 02:17:34;;;;;;;0.00;0.00;;;16.80;99.90;;;;;;4969189;28;22313;-82
2022/08/22 02:20:09;;;;;;;0.00;0.00;;;16.80;99.90;;;;;;4971270;28;20051;-82
2022/08/22 02:22:41;;;;;;;0.00;0.00;;;16.80;99.90;;;;;;4972857;28;20047;-81
2022/08/22 02:25:20;;;;;;;0.00;0.00;;;16.80;99.90;;;;;;4967948;28;20499;-82
2022/08/22 02:27:53;;;;;;;0.00;0.00;;;16.60;99.90;;;;;;4967060;28;20451;-82
2022/08/22 02:30:26;;;;;;;0.00;0.00;;;16.50;99.90;;;;;;4959994;28;20042;-82
2022/08/22 02:33:01;;;;;;;0.00;0.00;;;16.40;99.90;;;;;;4969518;28;20522;-82
2022/08/22 02:35:35;;;;;;;0.00;0.00;;;16.50;99.90;;;;;;4966550;28;20049;-82
2022/08/22 02:38:18;;;;;;;0.00;0.00;;;16.50;99.90;;;;;;4985613;28;20110;-82
2022/08/22 02:40:58;;;;;;;0.00;0.00;;;16.50;99.90;;;;;;4968050;28;20057;-81
2022/08/22 02:43:26;;;;;;;;;;;16.50;99.90;;;;;;4970532;28;20046;-81
2022/08/22 02:46:02;;;;;;;0.00;0.00;;;16.50;99.90;;;;;;4966118;28;20578;-82
2022/08/22 02:48:38;;;;;;;0.00;0.00;;;16.50;99.90;;;;;;4984509;28;20098;-82
2022/08/22 02:51:15;;;;;;;0.00;0.00;;;16.50;99.90;;;;;;4983873;28;20047;-82
2022/08/22 02:53:49;;;;;;;0.00;0.00;;;16.50;99.90;;;;;;4974953;28;20561;-81
2022/08/22 02:56:22;;;;;;;0.00;0.00;;;16.40;99.90;;;;;;4970962;28;20046;-82
2022/08/22 02:58:52;;;;;;;0.00;0.00;;;16.30;99.90;;;;;;4970019;28;20055;-81
2022/08/22 03:01:36;;;;;;;0.00;0.00;;;16.20;99.90;;;;;;4984858;28;20047;-82
2022/08/22 03:04:45;;;;;;;0.00;0.00;;;15.80;99.90;;;;;;4970248;28;20046;-82
2022/08/22 03:07:23;;;;;;;0.00;0.00;;;15.00;99.90;;;;;;4962177;28;20127;-82
2022/08/22 03:09:58;;;;;;;0.00;0.00;;;15.80;99.90;;;;;;4972675;28;20411;-81
2022/08/22 03:12:31;;;;;;;0.00;0.00;;;15.60;99.90;;;;;;4968685;28;20554;-82
2022/08/22 03:15:08;;;;;;;0.00;0.00;;;15.50;99.90;;;;;;4966898;28;20046;-82
2022/08/22 03:17:45;;;;;;;0.00;0.00;;;15.50;99.90;;;;;;4984846;28;20054;-82
2022/08/22 03:20:18;;;;;;;0.00;0.00;;;15.50;99.90;;;;;;4969079;28;20058;-81
2022/08/22 03:22:50;;;;;;;0.00;0.00;;;15.50;99.90;;;;;;4969899;28;20055;-81
2022/08/22 03:25:25;;;;;;;0.00;0.00;;;15.50;99.90;;;;;;4968087;28;20459;-82
2022/08/22 03:27:58;;;;;;;0.00;0.00;;;15.60;99.90;;;;;;4967405;28;20046;-82
2022/08/22 03:30:32;;;;;;;0.00;0.00;;;15.50;99.90;;;;;;4978081;28;20113;-82
2022/08/22 03:33:15;;;;;;;0.00;0.00;;;15.50;99.90;;;;;;4963550;28;20046;-82
2022/08/22 03:36:00;;;;;;;0.00;0.00;;;15.40;99.90;;;;;;4964439;28;20725;-82
2022/08/22 03:38:37;;;;;;;0.00;0.00;;;15.30;99.90;;;;;;4967582;28;20435;-82
2022/08/22 03:41:30;;;;;;;0.00;0.00;;;15.10;99.90;;;;;;4961745;28;20050;-82
2022/08/22 03:44:29;;;;;;;0.00;0.00;;;15.10;99.90;;;;;;4981709;28;20039;-81
2022/08/22 03:47:33;;;;;;;0.00;0.00;;;15.10;99.90;;;;;;4982266;28;20035;-81
2022/08/22 03:50:27;;;;;;;0.00;0.00;;;15.10;99.90;;;;;;4945173;28;20051;-82
2022/08/22 03:53:32;;;;;;;0.00;0.00;;;15.10;99.90;;;;;;4955784;28;20137;-82
2022/08/22 03:56:26;;;;;;;0.00;0.00;;;15.10;99.90;;;;;;4966640;28;20051;-82
2022/08/22 03:59:12;;;;;;;0.00;0.00;;;15.10;99.90;;;;;;4963010;28;20066;-82
2022/08/22 04:02:10;;;;;;;0.00;0.00;;;15.10;99.90;;;;;;4965393;28;20046;-82
2022/08/22 04:05:36;;;;;;;0.00;0.00;;;15.20;99.90;;;;;;4962716;28;20061;-82
2022/08/22 04:08:23;;;;;;;0.00;0.00;;;15.10;99.90;;;;;;4967180;28;20050;-82
2022/08/22 04:11:11;;;;;;;0.00;0.00;;;15.00;99.90;;;;;;4981877;28;20031;-82
2022/08/22 04:14:23;;;;;;;0.00;0.00;;;14.90;99.90;;;;;;4969767;28;20054;-81
2022/08/22 04:17:08;;;;;;;0.00;0.00;;;14.90;99.90;;;;;;4982025;28;20051;-82
2022/08/22 04:20:06;;;;;;;0.00;0.00;;;14.80;99.90;;;;;;4983295;28;20039;-81
2022/08/22 04:22:55;;;;;;;0.00;0.00;;;14.80;99.90;;;;;;4969698;28;20051;-82
2022/08/22 04:25:26;;;;;;;0.00;0.00;;;14.70;99.90;;;;;;4967510;28;20055;-82
2022/08/22 04:28:01;;;;;;;0.00;0.00;;;14.70;99.90;;;;;;4969572;28;20493;-81
2022/08/22 04:30:33;;;;;;;0.00;0.00;;;14.70;99.90;;;;;;4968148;28;20047;-82
2022/08/22 04:33:07;;;;;;;0.00;0.00;;;14.70;99.90;;;;;;4961720;28;20054;-81
2022/08/22 04:35:40;;;;;;;0.00;0.00;;;14.70;99.90;;;;;;4971251;28;20046;-81
2022/08/22 04:38:14;;;;;;;0.00;0.00;;;14.60;99.90;;;;;;4972800;28;20098;-82
2022/08/22 04:40:46;;;;;;;0.00;0.00;;;14.60;99.90;;;;;;4985692;28;20047;-82
2022/08/22 04:43:18;;;;;;;0.00;0.00;;;14.40;99.90;;;;;;4973328;28;20046;-82
2022/08/22 04:45:51;;;;;;;0.10;0.10;;;14.50;99.90;;;;;;4969338;28;20105;-81
2022/08/22 04:48:28;;;;;;;0.00;0.00;;;14.60;99.90;;;;;;4972150;28;20031;-82
2022/08/22 04:51:00;;;;;;;0.00;0.00;;;14.70;99.90;;;;;;4971043;28;20062;-82
2022/08/22 04:53:51;;;;;;;0.00;0.00;;;14.80;99.90;;;;;;4969167;28;20639;-81
2022/08/22 04:56:25;;;;;;;0.00;0.00;;;14.80;99.90;;;;;;4969066;28;20388;-82
2022/08/22 04:58:57;;;;;;;0.00;0.00;;;14.90;99.90;;;;;;4974847;28;20089;-82
2022/08/22 05:01:35;;;;;;;0.00;0.00;;;14.90;99.90;;;;;;4974780;28;20078;-81
2022/08/22 05:04:09;;;;;;;0.00;0.00;;;14.90;99.90;;;;;;4976077;28;20042;-81
2022/08/22 05:06:40;;;;;;;0.00;0.00;;;14.90;99.90;;;;;;4974184;28;20388;-81
2022/08/22 05:09:11;;;;;;;0.00;0.00;;;15.00;99.90;;;;;;4974113;28;20079;-82
2022/08/22 05:11:43;;;;;;;0.00;0.00;;;15.00;99.90;;;;;;4974764;28;20049;-81
2022/08/22 05:14:16;;;;;;;0.00;0.00;;;14.90;99.90;;;;;;4988246;28;20054;-82
2022/08/22 05:16:48;;;;;;;0.00;0.00;;;14.90;99.90;;;;;;4972966;28;20038;-82
2022/08/22 05:19:23;;;;;;;0.00;0.00;;;14.90;99.90;;;;;;4973625;28;20047;-82
2022/08/22 05:21:58;;;;;;;0.00;0.00;;;14.90;99.90;;;;;;4975532;28;20050;-82
2022/08/22 05:24:31;;;;;;;0.00;0.00;;;15.00;99.90;;;;;;4967031;28;20483;-81
2022/08/22 05:27:04;;;;;;;0.00;0.00;;;15.10;99.90;;;;;;4968631;28;20031;-82
2022/08/22 05:29:31;;;;;;;0.00;0.00;;;15.20;99.90;;;;;;4972422;28;20086;-82
2022/08/22 05:32:02;;;;;;;0.00;0.00;;;15.20;99.90;;;;;;4968848;28;20039;-82
2022/08/22 05:34:35;;;;;;;0.00;0.00;;;15.30;99.90;;;;;;4977960;28;20521;-82
2022/08/22 05:37:09;;;;;;;0.00;0.00;;;15.40;99.90;;;;;;4974238;28;20035;-82
2022/08/22 05:39:39;;;;;;;0.00;0.00;;;15.40;99.90;;;;;;4974877;28;20589;-82
2022/08/22 05:42:21;;;;;;;0.00;0.00;;;15.50;99.90;;;;;;4974306;28;20058;-82
2022/08/22 05:44:48;;;;;;;0.00;0.00;;;15.60;99.90;;;;;;4974854;28;20463;-82
2022/08/22 05:47:21;;;;;;;0.00;0.00;;;15.60;99.90;;;;;;4969137;28;20561;-82
2022/08/22 05:49:58;;;;;;;0.05;0.05;;;15.70;99.90;;;;;;4971746;28;20058;-83
2022/08/22 05:52:41;;;;;;;0.00;0.00;;;15.80;99.90;;;;;;4974100;28;20051;-82
2022/08/22 05:55:20;;;;;;;0.00;0.00;;;15.90;99.90;;;;;;4967354;28;20051;-82
2022/08/22 05:57:51;;;;;;;0.00;0.00;;;15.90;99.90;;;;;;4983200;28;20448;-82
2022/08/22 06:00:21;;;;;;;0.00;0.00;;;16.00;99.90;;;;;;4974306;28;20038;-82
2022/08/22 06:02:57;;;;;;;0.00;0.00;;;16.00;99.90;;;;;;4970691;28;20065;-82
2022/08/22 06:05:30;;;;;;;0.03;0.03;;;16.00;99.90;;;;;;4972131;28;20426;-82
2022/08/22 06:08:03;;;;;;;0.00;0.00;;;16.20;99.90;;;;;;4967170;28;20043;-82
2022/08/22 06:10:35;;;;;;;0.00;0.00;;;16.20;99.90;;;;;;4961912;28;20058;-82
2022/08/22 06:13:08;;;;;;;0.00;0.00;;;16.30;99.90;;;;;;4973592;28;20051;-82
2022/08/22 06:15:44;;;;;;;0.00;0.00;;;16.40;99.90;;;;;;4983155;28;20251;-81
2022/08/22 06:18:19;;;;;;;0.00;0.00;;;16.40;99.90;;;;;;4987647;28;20038;-82
2022/08/22 06:20:51;;;;;;;0.00;0.00;;;16.40;99.90;;;;;;4973744;28;20043;-82
2022/08/22 06:23:25;;;;;;;0.00;0.00;;;16.50;99.90;;;;;;4973218;28;20047;-81
2022/08/22 06:25:56;;;;;;;0.00;0.00;;;16.40;99.90;;;;;;4974849;28;20585;-82
2022/08/22 06:28:28;;;;;;;0.00;0.00;;;16.50;99.90;;;;;;4973642;28;20035;-82
2022/08/22 06:30:56;;;;;;;0.00;0.00;;;16.50;99.90;;;;;;4973285;28;20109;-82
2022/08/22 06:33:27;;;;;;;0.00;0.00;;;16.60;99.90;;;;;;4973262;28;20046;-82
2022/08/22 06:39:08;;;;;;;0.00;0.00;;;16.60;99.90;;;;;;4940246;28;20046;-82
2022/08/22 06:41:38;;;;;;;0.00;0.00;;;16.60;99.90;;;;;;4976968;28;20057;-82
2022/08/22 06:44:06;;;;;;;0.00;0.00;;;16.70;99.90;;;;;;4966823;28;20043;-82
2022/08/22 06:46:37;;;;;;;0.00;0.00;;;16.70;99.90;;;;;;4976443;28;20172;-82
2022/08/22 06:49:06;;;;;;;0.00;0.00;;;16.60;99.90;;;;;;4982311;28;20069;-82
2022/08/22 06:51:36;;;;;;;0.10;0.10;;;16.70;99.90;;;;;;4977433;28;20046;-82
2022/08/22 06:54:07;;;;;;;0.00;0.00;;;16.90;99.90;;;;;;4976697;28;20155;-83
2022/08/22 06:56:39;;;;;;;0.00;0.00;;;16.90;99.90;;;;;;4976737;28;20047;-82
2022/08/22 06:59:10;;;;;;;0.00;0.00;;;17.00;99.90;;;;;;4974705;28;20396;-82
2022/08/22 07:01:44;;;;;;;0.10;0.10;;;17.10;99.90;;;;;;4978954;28;20053;-82
2022/08/22 07:04:11;;;;;;;0.00;0.00;;;17.20;99.90;;;;;;4971985;28;20035;-83
2022/08/22 07:06:42;;;;;;;0.00;0.00;;;17.10;99.90;;;;;;4974753;28;20047;-82
2022/08/22 07:09:20;;;;;;;0.08;0.08;;;17.10;99.90;;;;;;4967460;28;20050;-82
2022/08/22 07:11:47;;;;;;;0.00;0.00;;;17.20;99.90;;;;;;4981740;28;20045;-82
2022/08/22 07:14:17;;;;;;;0.00;0.00;;;17.20;99.90;;;;;;4970548;28;20184;-82
2022/08/22 07:16:52;;;;;;;0.00;0.00;;;17.20;99.90;;;;;;4972088;28;20105;-82
2022/08/22 07:19:25;;;;;;;0.00;0.00;;;17.30;99.90;;;;;;4976193;28;20716;-82
2022/08/22 07:21:55;;;;;;;0.00;0.00;;;17.30;99.90;;;;;;4964331;28;20049;-82
2022/08/22 07:24:25;;;;;;;0.00;0.00;;;17.40;99.90;;;;;;4971987;28;20034;-82
2022/08/22 07:27:04;;;;;;;0.00;0.00;;;17.50;99.90;;;;;;4969937;28;20455;-82
2022/08/22 07:29:41;;;;;;;0.00;0.00;;;17.60;99.90;;;;;;4983160;28;20050;-82
2022/08/22 07:32:12;;;;;;;0.00;0.00;;;17.70;99.90;;;;;;4965257;28;20057;-82
2022/08/22 07:35:02;;;;;;;0.00;0.00;;;17.80;99.90;;;;;;4960088;28;20051;-82
2022/08/22 07:37:44;;;;;;;0.00;0.00;;;17.90;99.90;;;;;;4964022;28;20039;-83
2022/08/22 07:40:19;;;;;;;0.00;0.00;;;17.90;99.90;;;;;;4975237;28;20050;-82
2022/08/22 07:42:50;;;;;;;0.00;0.00;;;18.00;99.90;;;;;;4972562;28;20499;-82
2022/08/22 07:45:25;;;;;;;0.00;0.00;;;18.00;99.90;;;;;;4965685;28;20045;-83
2022/08/22 07:48:03;;;;;;;0.00;0.00;;;18.00;99.90;;;;;;4981486;28;20058;-82
2022/08/22 07:50:34;;;;;;;0.00;0.00;;;18.10;99.90;;;;;;4971453;28;20531;-82
2022/08/22 07:53:08;;;;;;;0.00;0.00;;;18.20;99.90;;;;;;4977165;28;20054;-83
2022/08/22 07:55:37;;;;;;;0.00;0.00;;;18.30;99.90;;;;;;4970935;28;20058;-82
2022/08/22 07:58:15;;;;;;;;;;;18.40;99.90;;;;;;4968778;28;20529;-82
2022/08/22 08:00:44;;;;;;;0.00;0.00;;;18.50;99.90;;;;;;4971102;28;20342;-82
2022/08/22 08:03:12;;;;;;;0.00;0.00;;;18.60;99.90;;;;;;4971371;28;20249;-82
2022/08/22 08:05:42;;;;;;;0.00;0.00;;;18.70;99.90;;;;;;4971584;28;20057;-82
2022/08/22 08:08:19;;;;;;;0.00;0.00;;;18.70;99.90;;;;;;4972217;28;20043;-82
2022/08/22 08:10:47;;;;;;;0.00;0.00;;;18.80;99.90;;;;;;4969693;28;20051;-82
2022/08/22 08:13:20;;;;;;;0.00;0.00;;;18.90;99.90;;;;;;4970463;28;20045;-82
2022/08/22 08:15:49;;;;;;;0.00;0.00;;;19.00;99.90;;;;;;4969629;28;20380;-82
2022/08/22 08:18:20;;;;;;;0.00;0.00;;;19.20;99.90;;;;;;4978244;28;20459;-83
2022/08/22 08:20:50;;;;;;;0.00;0.00;;;19.30;99.90;;;;;;4981592;28;20043;-82
2022/08/22 08:23:20;;;;;;;0.00;0.00;;;19.40;99.90;;;;;;4974178;28;20038;-83
2022/08/22 08:26:00;;;;;;;0.00;0.00;;;19.50;99.90;;;;;;4973192;28;20577;-82
2022/08/22 08:28:33;;;;;;;0.00;0.00;;;19.50;99.90;;;;;;4970024;28;20105;-82
2022/08/22 08:31:06;;;;;;;0.00;0.00;;;19.70;99.90;;;;;;4965649;28;20043;-82
2022/08/22 08:33:38;;;;;;;0.00;0.00;;;19.90;99.90;;;;;;4966000;28;20058;-82
2022/08/22 08:36:15;;;;;;;0.00;0.00;;;20.10;99.90;;;;;;4965580;28;20089;-82
2022/08/22 08:38:48;;;;;;;0.00;0.00;;;20.10;99.90;;;;;;4976410;28;20051;-82
2022/08/22 08:41:39;;;;;;;0.00;0.00;;;20.30;99.90;;;;;;4975678;28;20053;-82
2022/08/22 08:44:21;;;;;;;0.00;0.00;;;20.50;99.90;;;;;;4971673;28;20214;-81
2022/08/22 08:47:11;;;;;;;0.00;0.00;;;20.50;99.90;;;;;;4968712;28;20054;-82
2022/08/22 08:50:01;;;;;;;0.00;0.00;;;20.60;99.90;;;;;;4974367;28;20046;-82
2022/08/22 08:53:06;;;;;;;0.00;0.00;;;20.70;99.90;;;;;;4967876;28;20382;-83
2022/08/22 08:55:46;;;;;;;0.00;0.00;;;20.70;99.90;;;;;;4959383;28;20143;-82
2022/08/22 08:58:32;;;;;;;0.00;0.00;;;20.70;99.90;;;;;;4968347;28;20455;-83
2022/08/22 09:01:11;;;;;;;0.00;0.00;;;20.70;99.90;;;;;;4968807;28;20046;-82
2022/08/22 09:03:50;;;;;;;;;;;20.80;99.90;;;;;;4972659;28;20054;-83
2022/08/22 09:06:42;;;;;;;0.00;0.00;;;21.00;99.90;;;;;;4971752;28;19926;-82
2022/08/22 09:09:40;;;;;;;0.00;0.00;;;21.00;99.80;;;;;;4973674;28;20407;-83
2022/08/22 09:12:29;;;;;;;0.00;0.00;;;21.10;99.50;;;;;;4981691;28;20042;-82
2022/08/22 09:15:11;;;;;;;0.00;0.00;;;21.10;99.30;;;;;;4971092;28;20043;-83
2022/08/22 09:17:59;;;;;;;0.00;0.00;;;21.10;99.30;;;;;;4971260;28;20042;-82
2022/08/22 09:20:51;;;;;;;0.00;0.00;;;21.20;99.10;;;;;;4967484;28;20059;-82
2022/08/22 09:23:51;;;;;;;0.00;0.00;;;21.40;98.90;;;;;;4969674;28;20046;-83
2022/08/22 09:28:54;;;;;;;0.00;0.00;;;21.40;98.40;;;;;;4937807;29;20056;-83
2022/08/22 09:31:32;;;;;;;0.00;0.00;;;21.60;97.90;;;;;;4944662;28;20043;-82
2022/08/22 09:34:24;;;;;;;0.00;0.00;;;21.70;97.60;;;;;;4934698;29;20051;-82
2022/08/22 09:37:09;;;;;;;0.00;0.00;;;21.80;97.50;;;;;;4954296;28;20900;-82
2022/08/22 09:39:52;;;;;;;0.00;0.00;;;21.90;97.80;;;;;;4950247;28;20471;-81
2022/08/22 09:42:29;;;;;;;0.00;0.00;;;21.90;97.30;;;;;;4935508;29;20413;-83
2022/08/22 09:45:37;;;;;;;0.00;0.00;;;21.90;96.50;;;;;;4936595;29;20054;-84
2022/08/22 09:48:13;;;;;;;0.00;0.00;;;22.00;96.80;;;;;;4953401;28;20605;-82
2022/08/22 09:50:49;;;;;;;0.00;0.00;;;22.10;96.10;;;;;;4936614;29;20055;-83
2022/08/22 09:53:40;;;;;;;0.00;0.00;;;22.10;96.30;;;;;;4938827;29;20051;-82
2022/08/22 09:56:13;;;;;;;0.00;0.00;;;22.30;95.10;;;;;;4938137;29;20071;-82
2022/08/22 09:58:45;;;;;;;0.00;0.00;;;22.30;95.40;;;;;;4938555;29;20145;-83
2022/08/22 10:01:24;;;;;;;0.00;0.00;;;22.40;94.60;;;;;;4941994;29;20048;-82
2022/08/22 10:04:24;;;;;;;0.00;0.00;;;22.40;95.10;;;;;;4952692;28;20058;-82
2022/08/22 10:07:03;;;;;;;0.00;0.00;;;22.50;95.00;;;;;;4954063;28;20047;-82
2022/08/22 10:09:46;;;;;;;0.00;0.00;;;22.60;95.40;;;;;;4935949;29;20040;-82
2022/08/22 10:12:26;;;;;;;0.00;0.00;;;22.70;94.20;;;;;;4935064;29;20052;-82
2022/08/22 10:15:13;;;;;;;0.00;0.00;;;22.80;94.20;;;;;;4937363;29;20122;-82
2022/08/22 10:17:46;;;;;;;0.00;0.00;;;23.00;95.00;;;;;;4937678;29;20035;-83
2022/08/22 10:20:20;;;;;;;0.00;0.00;;;23.10;95.10;;;;;;4941252;29;20080;-82
2022/08/22 10:22:58;;;;;;;0.00;0.00;;;23.30;94.90;;;;;;4950723;28;20106;-82
2022/08/22 10:25:35;;;;;;;0.00;0.00;;;23.40;94.20;;;;;;4935453;29;20055;-82
2022/08/22 10:28:15;;;;;;;0.00;0.00;;;23.60;93.90;;;;;;4939694;29;20412;-82
2022/08/22 10:31:00;;;;;;;0.00;0.00;;;23.80;93.60;;;;;;4957824;28;20058;-82
2022/08/22 10:33:33;;;;;;;0.00;0.00;;;23.90;93.00;;;;;;4942588;29;20047;-82
2022/08/22 10:36:06;;;;;;;0.00;0.00;;;24.10;92.60;;;;;;4940805;29;20051;-83
2022/08/22 10:38:44;;;;;;;0.00;0.00;;;24.10;92.90;;;;;;4938391;29;20048;-82
2022/08/22 10:41:24;;;;;;;0.00;0.00;;;24.20;91.50;;;;;;4941995;29;20075;-83
2022/08/22 10:43:58;;;;;;;0.00;0.00;;;24.30;91.80;;;;;;4941838;28;20043;-83
2022/08/22 10:46:34;;;;;;;0.00;0.00;;;24.50;91.90;;;;;;4926752;29;20055;-81
2022/08/22 10:49:08;;;;;;;0.00;0.00;;;24.70;91.40;;;;;;4949481;28;20547;-82
2022/08/22 10:51:43;;;;;;;0.00;0.00;;;24.70;90.70;;;;;;4945580;29;20051;-83
2022/08/22 10:54:43;;;;;;;0.00;0.00;;;24.80;90.70;;;;;;4936969;29;20816;-83
2022/08/22 10:57:30;;;;;;;0.00;0.00;;;24.90;89.90;;;;;;4938159;29;20055;-82
2022/08/22 11:00:08;;;;;;;0.00;0.00;;;24.80;90.30;;;;;;4944349;29;20042;-82
2022/08/22 11:02:43;;;;;;;0.00;0.00;;;24.80;90.70;;;;;;4952990;28;20047;-82
2022/08/22 11:05:38;;;;;;;0.00;0.00;;;25.00;91.00;;;;;;4935081;29;20080;-83
2022/08/22 11:08:41;;;;;;;0.00;0.00;;;25.10;91.00;;;;;;4932305;29;20044;-83
2022/08/22 11:11:18;;;;;;;0.00;0.00;;;25.00;88.90;;;;;;4937248;29;20134;-83
2022/08/22 11:14:15;;;;;;;0.00;0.00;;;25.00;88.10;;;;;;4940225;29;20508;-82
2022/08/22 11:16:52;;;;;;;0.00;0.00;;;25.10;87.40;;;;;;4934165;29;20070;-82
2022/08/22 11:19:36;;;;;;;0.00;0.00;;;24.80;87.00;;;;;;4931977;29;20071;-83
2022/08/22 11:22:14;;;;;;;0.00;0.00;;;24.80;87.30;;;;;;4933089;29;20040;-83
2022/08/22 11:25:22;;;;;;;0.00;0.00;;;24.90;86.50;;;;;;4935951;29;20055;-83
2022/08/22 11:28:21;;;;;;;0.00;0.00;;;25.00;86.90;;;;;;4943984;28;20047;-83
2022/08/22 11:31:02;;;;;;;0.00;0.00;;;25.10;83.60;;;;;;4939507;29;20903;-83
2022/08/22 11:33:41;;;;;;;0.00;0.00;;;25.30;82.90;;;;;;4944046;29;20059;-83
2022/08/22 11:36:31;;;;;;;0.00;0.00;;;25.50;80.90;;;;;;4935912;29;20515;-83
2022/08/22 11:39:08;;;;;;;0.00;0.00;;;25.60;81.60;;;;;;4936477;29;20039;-82
2022/08/22 11:41:52;;;;;;;0.00;0.00;;;25.70;80.10;;;;;;4939404;29;20510;-83
2022/08/22 11:44:27;;;;;;;0.00;0.00;;;25.90;80.60;;;;;;4937797;29;20050;-82
2022/08/22 11:46:56;;;;;;;0.00;0.00;;;28.00;82.90;;;;;;4942028;29;20056;-82
2022/08/22 11:49:34;;;;;;;0.00;0.00;;;26.10;82.00;;;;;;4945518;28;20036;-83
2022/08/22 11:52:11;;;;;;;0.00;0.00;;;26.20;82.00;;;;;;4937633;29;20052;-81
2022/08/22 11:55:00;;;;;;;0.00;0.00;;;26.40;80.10;;;;;;4943843;29;20047;-82
2022/08/22 11:57:33;;;;;;;0.00;0.00;;;26.60;81.70;;;;;;4943484;29;20048;-83
2022/08/22 12:00:17;;;;;;;0.00;0.00;;;26.80;81.40;;;;;;4949168;29;20066;-83
2022/08/22 12:03:06;;;;;;;0.00;0.00;;;26.70;75.80;;;;;;4941847;29;20570;-83
2022/08/22 12:05:40;;;;;;;0.00;0.00;;;26.50;77.80;;;;;;4934895;29;20052;-83
2022/08/22 12:08:12;;;;;;;0.00;0.00;;;26.70;78.90;;;;;;4945295;29;20036;-83
2022/08/22 12:10:48;;;;;;;0.00;0.00;;;26.90;77.70;;;;;;4942841;29;20053;-83
2022/08/22 12:13:25;;;;;;;0.00;0.00;;;27.10;77.50;;;;;;4944987;29;20067;-82
2022/08/22 12:16:12;;;;;;;0.00;0.00;;;27.30;77.30;;;;;;4952359;28;20047;-82
2022/08/22 12:18:48;;;;;;;0.00;0.00;;;27.30;78.20;;;;;;4937639;29;20044;-81
2022/08/22 12:21:39;;;;;;;0.00;0.00;;;27.50;74.80;;;;;;4949932;28;20047;-82
2022/08/22 12:24:24;;;;;;;0.00;0.00;;;27.40;77.10;;;;;;4943921;29;20055;-82
2022/08/22 12:27:18;;;;;;;0.00;0.00;;;27.40;76.20;;;;;;4959277;28;20050;-83
2022/08/22 12:30:06;;;;;;;0.00;0.00;;;27.50;78.30;;;;;;4940335;29;20115;-82
2022/08/22 12:33:17;;;;;;;0.00;0.00;;;27.60;76.50;;;;;;4945225;29;20043;-81
2022/08/22 12:36:15;;;;;;;0.00;0.00;;;27.50;73.70;;;;;;4947614;28;20497;-82
2022/08/22 12:39:03;;;;;;;0.00;0.00;;;27.50;74.60;;;;;;4942740;29;20122;-82
2022/08/22 12:42:07;;;;;;;0.00;0.00;;;27.50;76.00;;;;;;4942807;29;20051;-82
2022/08/22 12:44:52;;;;;;;0.00;0.00;;;27.40;74.20;;;;;;4962621;28;20122;-82
2022/08/22 12:47:36;;;;;;;0.00;0.00;;;27.30;73.70;;;;;;4958579;28;20074;-83
2022/08/22 12:50:23;;;;;;;0.00;0.00;;;27.10;73.60;;;;;;4957261;28;20131;-82
2022/08/22 12:53:14;;;;;;;0.00;0.00;;;27.20;73.70;;;;;;4943455;29;20048;-82
2022/08/22 12:56:02;;;;;;;0.00;0.00;;;27.40;76.00;;;;;;4939287;29;20059;-82
2022/08/22 12:58:49;;;;;;;0.00;0.00;;;27.50;76.50;;;;;;4940572;29;20051;-82
2022/08/22 13:01:17;;;;;;;0.00;0.00;;;27.60;76.10;;;;;;4950286;28;20045;-82
2022/08/22 13:03:49;;;;;;;0.00;0.00;;;27.80;75.10;;;;;;4945093;29;20043;-81
2022/08/22 13:06:46;;;;;;;0.00;0.00;;;27.90;74.80;;;;;;4940075;29;20055;-80
2022/08/22 13:09:19;;;;;;;0.00;0.00;;;27.90;73.00;;;;;;4943639;29;20276;-81
2022/08/22 13:11:59;;;;;;;0.00;0.00;;;28.00;72.70;;;;;;4935400;29;20440;-83
2022/08/22 13:14:32;;;;;;;0.00;0.00;;;28.00;72.80;;;;;;4941381;29;20103;-82
2022/08/22 13:17:05;;;;;;;0.00;0.00;;;28.20;70.30;;;;;;4955204;28;20165;-82
2022/08/22 13:19:59;;;;;;;0.00;0.00;;;28.20;70.80;;;;;;4938093;29;20043;-83
2022/08/22 13:22:30;;;;;;;0.00;0.00;;;28.30;72.80;;;;;;4945486;29;20052;-82
2022/08/22 13:25:01;;;;;;;0.00;0.00;;;28.20;69.70;;;;;;4948073;28;20087;-82
2022/08/22 13:27:33;;;;;;;0.00;0.00;;;27.90;69.10;;;;;;4942856;29;20054;-83
2022/08/22 13:30:06;;;;;;;0.00;0.00;;;27.90;71.30;;;;;;4958121;28;20473;-82
2022/08/22 13:32:43;;;;;;;0.00;0.00;;;27.80;70.10;;;;;;4933383;29;20107;-80
2022/08/22 13:35:19;;;;;;;0.00;0.00;;;27.70;71.30;;;;;;4946271;29;20145;-84
2022/08/22 13:37:56;;;;;;;0.00;0.00;;;27.70;69.90;;;;;;4962474;28;20567;-83
2022/08/22 13:40:26;;;;;;;0.00;0.00;;;29.00;70.20;;;;;;4964527;28;20047;-82
2022/08/22 13:43:04;;;;;;;0.00;0.00;;;27.60;71.00;;;;;;4939998;29;20524;-82
2022/08/22 13:45:34;;;;;;;0.00;0.00;;;27.50;71.00;;;;;;4945839;29;20056;-83
2022/08/22 13:48:08;;;;;;;0.00;0.00;;;27.60;71.70;;;;;;4943406;29;20044;-81
2022/08/22 13:50:53;;;;;;;0.00;0.00;;;27.50;70.40;;;;;;4947667;29;20047;-83
2022/08/22 13:53:28;;;;;;;0.00;0.00;;;27.50;70.80;;;;;;4947428;29;20050;-82
2022/08/22 13:56:04;;;;;;;0.00;0.00;;;27.50;70.30;;;;;;4958928;28;20051;-82
2022/08/22 13:58:37;;;;;;;0.00;0.00;;;27.50;70.80;;;;;;4967538;28;20082;-82